CheckWX is a tool to help pilots better visualize weather data.  It is not intended as a substitute for an official pre-flight weather briefing.

14:48:32 UTC

KBIJ METAR
Early County Airport
Blakely, Georgia, USA
Current

34 mins ago

KBIJ 221415Z AUTO 00000KT 10SM CLR 20/09 A3023 RMK AO2
Observed
Apr-22 @ 14:15 UTC
Visibility
10 SM
Flight Rules
VFR
Cloud Levels
  • Clear skies
Temperature
20°C / 68°F
Dewpoint
C / 48°F
Humidity
49%
Altimeter
30.23" Hg
Pressure
1023.72 hPa
Previous

54 mins ago

KBIJ 221355Z AUTO 35005KT 10SM CLR 18/08 A3023 RMK AO2
Observed
Apr-22 @ 13:55 UTC
Wind
  • 350° at 5 KTS
Visibility
10 SM
Flight Rules
VFR
Cloud Levels
  • Clear skies
Temperature
18°C / 64°F
Dewpoint
C / 46°F
Humidity
52%
Altimeter
30.23" Hg
Pressure
1023.72 hPa
Previous

1 hour ago

KBIJ 221335Z AUTO 34006KT 10SM CLR 17/08 A3023 RMK AO2
Observed
Apr-22 @ 13:35 UTC
Wind
  • 340° at 6 KTS
Visibility
10 SM
Flight Rules
VFR
Cloud Levels
  • Clear skies
Temperature
17°C / 63°F
Dewpoint
C / 46°F
Humidity
56%
Altimeter
30.23" Hg
Pressure
1023.72 hPa